Time;durP1;ratioP1;P1;durP2;ratioP2;P2;SDS_P1;SDS_P2;PMS_P1;PMS_P2;Temp;Humidity;BMP_temperature;BMP_pressure;BME280_temperature;BME280_humidity;BME280_pressure;Samples;Min_cycle;Max_cycle;Signal;HPM_P1;HPM_P2
2022/06/14 00:04:30;;;;;;;4.65;1.90;;;;;;;12.38;52.80;100590.63;10508373;28;20851;-62
2022/06/14 00:09:32;;;;;;;6.50;2.30;;;;;;;12.34;52.71;100594.38;10509351;28;20048;-61
2022/06/14 00:14:33;;;;;;;6.35;1.98;;;;;;;12.11;53.30;100595.63;10509631;28;20501;-62
2022/06/14 00:19:35;;;;;;;4.30;2.28;;;;;;;12.05;53.73;100595.09;10506024;28;20411;-62
2022/06/14 00:24:37;;;;;;;5.28;2.28;;;;;;;11.99;53.81;100590.19;10509256;28;20145;-62
2022/06/14 00:29:38;;;;;;;8.20;2.40;;;;;;;11.57;54.32;100600.38;10509273;28;20415;-62
2022/06/14 00:34:40;;;;;;;5.68;2.38;;;;;;;11.39;54.51;100599.59;10511154;28;20487;-62
2022/06/14 00:39:45;;;;;;;6.25;2.15;;;;;;;11.28;55.11;100602.78;10509926;28;20052;-61
2022/06/14 00:45:22;;;;;;;5.18;2.10;;;;;;;11.35;55.40;100600.69;10510650;28;20506;-62
2022/06/14 00:50:44;;;;;;;4.90;2.13;;;;;;;11.50;55.24;100602.47;10477647;28;20585;-62
2022/06/14 00:56:11;;;;;;;4.45;2.17;;;;;;;11.59;54.93;100594.16;10501576;28;20143;-62
2022/06/14 01:01:19;;;;;;;5.03;2.35;;;;;;;11.58;55.01;100592.44;10491523;28;20455;-62
2022/06/14 01:06:45;;;;;;;5.03;2.20;;;;;;;11.42;55.37;100595.97;10506765;28;20137;-62
2022/06/14 01:12:00;;;;;;;5.18;2.38;;;;;;;11.31;55.73;100591.28;10492489;28;20486;-62
2022/06/14 01:17:02;;;;;;;6.22;2.33;;;;;;;11.26;55.41;100598.53;10507879;28;20063;-62
2022/06/14 01:22:04;;;;;;;5.55;2.30;;;;;;;11.27;55.06;100601.06;10502980;28;20487;-62
2022/06/14 01:27:10;;;;;;;6.18;2.28;;;;;;;11.26;55.21;100609.84;10506386;28;20348;-62
2022/06/14 01:32:15;;;;;;;5.35;2.40;;;;;;;11.14;55.41;100604.41;10506469;28;20139;-61
2022/06/14 01:37:17;;;;;;;6.28;2.25;;;;;;;10.99;55.70;100606.00;10508423;28;20118;-62
2022/06/14 01:42:32;;;;;;;4.90;2.33;;;;;;;10.92;56.38;100586.31;10506136;28;20097;-61
2022/06/14 01:47:58;;;;;;;6.10;2.47;;;;;;;10.56;57.02;100584.69;10501061;28;20052;-62
2022/06/14 01:53:18;;;;;;;5.15;2.58;;;;;;;10.52;56.58;100582.19;10502428;28;20056;-62
2022/06/14 01:58:30;;;;;;;5.07;2.50;;;;;;;10.58;56.81;100586.31;10504387;28;20468;-61
2022/06/14 02:09:24;;;;;;;6.30;2.40;;;;;;;10.52;57.21;100587.44;10512885;28;20048;-61
2022/06/14 02:14:51;;;;;;;10.70;2.75;;;;;;;10.54;57.00;100599.59;10514135;28;20136;-61
2022/06/14 02:20:00;;;;;;;4.80;2.60;;;;;;;10.46;56.63;100599.97;10507747;28;20060;-62
2022/06/14 02:25:06;;;;;;;4.72;2.63;;;;;;;10.20;57.50;100597.75;10511549;28;20083;-62
2022/06/14 02:30:13;;;;;;;4.78;2.30;;;;;;;10.26;57.53;100603.53;10514390;28;20193;-61
2022/06/14 02:35:21;;;;;;;6.57;2.67;;;;;;;10.23;57.66;100597.63;10512441;28;20113;-62
2022/06/14 02:40:33;;;;;;;5.63;2.83;;;;;;;10.14;57.35;100590.19;10514976;28;20087;-62
2022/06/14 02:45:49;;;;;;;6.22;2.20;;;;;;;10.04;57.94;100592.41;10512632;28;20080;-62
2022/06/14 02:50:58;;;;;;;5.88;2.45;;;;;;;10.03;57.71;100598.56;10514240;28;20142;-62
2022/06/14 02:56:09;;;;;;;4.38;2.40;;;;;;;9.96;58.00;100596.28;10509168;28;20055;-62
2022/06/14 03:01:23;;;;;;;4.22;2.53;;;;;;;9.97;57.93;100608.47;10512888;28;20055;-62
2022/06/14 03:06:54;;;;;;;9.07;2.72;;;;;;;9.95;57.76;100607.69;10504230;28;20052;-62
2022/06/14 03:12:08;;;;;;;4.10;2.50;;;;;;;9.80;58.04;100609.22;10505503;28;20055;-61
2022/06/14 03:17:46;;;;;;;5.78;2.72;;;;;;;9.75;57.98;100605.13;10505720;28;20044;-61
2022/06/14 03:22:51;;;;;;;4.97;2.33;;;;;;;9.84;57.83;100602.09;10504635;28;20048;-61
2022/06/14 03:28:04;;;;;;;5.93;2.90;;;;;;;9.84;58.05;100599.47;10505250;28;20131;-61
2022/06/14 03:33:15;;;;;;;8.02;2.53;;;;;;;9.91;57.53;100601.72;10513331;28;20048;-62
2022/06/14 03:38:20;;;;;;;5.60;2.50;;;;;;;9.85;57.61;100604.63;10512373;28;20411;-61
2022/06/14 03:43:22;;;;;;;5.55;2.35;;;;;;;9.84;57.23;100608.16;10508798;28;20328;-61
2022/06/14 03:48:26;;;;;;;4.65;2.47;;;;;;;9.90;57.27;100618.34;10511879;28;20139;-60
2022/06/14 03:53:43;;;;;;;7.70;2.50;;;;;;;9.85;57.54;100611.63;10505893;28;20040;-61
2022/06/14 03:58:56;;;;;;;6.65;2.40;;;;;;;9.90;57.62;100620.94;10512619;28;20077;-61
2022/06/14 04:04:00;;;;;;;4.90;2.20;;;;;;;10.10;57.05;100612.16;10514028;28;20465;-61
2022/06/14 04:09:17;;;;;;;6.07;2.33;;;;;;;10.62;56.58;100608.78;10510051;28;20058;-62
2022/06/14 04:14:28;;;;;;;8.45;2.63;;;;;;;12.78;52.06;100605.78;10496647;28;20135;-61
2022/06/14 04:19:47;;;;;;;5.13;2.40;;;;;;;15.69;45.87;100590.47;10512815;28;20051;-62
2022/06/14 04:24:56;;;;;;;4.20;2.25;;;;;;;17.63;41.59;100585.50;10508106;28;20131;-61
2022/06/14 04:30:09;;;;;;;3.92;2.00;;;;;;;19.05;38.41;100579.97;10511171;28;20051;-61
2022/06/14 04:35:20;;;;;;;5.40;2.10;;;;;;;20.36;35.61;100579.94;10510802;28;21304;-61
2022/06/14 04:40:37;;;;;;;4.47;2.03;;;;;;;21.21;33.52;100570.25;10510765;28;20051;-62
2022/06/14 04:46:01;;;;;;;6.07;2.30;;;;;;;21.54;33.13;100569.72;10509936;28;20052;-61
2022/06/14 04:51:15;;;;;;;3.75;2.00;;;;;;;22.33;31.86;100568.22;10511088;28;20559;-62
2022/06/14 04:56:31;;;;;;;4.60;2.00;;;;;;;23.41;29.93;100558.97;10510447;28;20606;-61
2022/06/14 05:01:41;;;;;;;5.50;1.85;;;;;;;24.47;28.57;100555.66;10510411;28;20138;-62
2022/06/14 05:06:55;;;;;;;5.68;1.92;;;;;;;24.39;28.24;100553.78;10510093;28;20094;-61
2022/06/14 05:12:13;;;;;;;4.55;1.85;;;;;;;25.25;27.17;100559.47;10509933;28;20055;-61
2022/06/14 05:17:24;;;;;;;5.05;2.03;;;;;;;26.07;26.04;100542.97;10509264;28;20147;-62
2022/06/14 05:22:35;;;;;;;5.43;1.90;;;;;;;27.00;25.00;100536.41;10510377;28;20391;-62
2022/06/14 05:27:46;;;;;;;5.00;1.90;;;;;;;27.36;24.58;100534.72;10507970;28;20130;-61
2022/06/14 05:33:08;;;;;;;5.82;1.90;;;;;;;24.78;26.81;100551.34;10511166;28;20533;-62
2022/06/14 05:38:28;;;;;;;4.30;1.73;;;;;;;21.54;31.44;100559.09;10510313;28;20139;-62
2022/06/14 05:43:44;;;;;;;5.72;1.98;;;;;;;19.01;35.67;100577.69;10507642;28;20043;-62
2022/06/14 05:48:52;;;;;;;8.55;2.30;;;;;;;18.03;37.43;100577.91;10506663;28;20201;-63
2022/06/14 05:54:08;;;;;;;5.03;1.83;;;;;;;17.37;38.99;100576.97;10506754;28;20070;-63
2022/06/14 05:59:26;;;;;;;5.38;2.00;;;;;;;17.33;39.56;100572.88;10505003;28;20055;-62
2022/06/14 06:04:42;;;;;;;5.30;2.00;;;;;;;17.26;40.24;100568.16;10501337;28;20139;-62
2022/06/14 06:09:52;;;;;;;4.95;2.00;;;;;;;16.69;40.85;100576.09;10504898;28;20044;-62
2022/06/14 06:15:07;;;;;;;8.15;2.30;;;;;;;16.10;42.09;100569.91;10506818;28;20411;-62
2022/06/14 06:20:30;;;;;;;3.78;2.22;;;;;;;16.11;42.49;100571.56;10504730;28;20118;-62
2022/06/14 06:25:38;;;;;;;5.15;2.20;;;;;;;16.28;42.47;100573.81;10503368;28;20798;-67
2022/06/14 06:31:07;;;;;;;6.38;2.40;;;;;;;16.97;41.57;100567.75;10503232;28;20485;-67
2022/06/14 06:36:28;;;;;;;5.05;2.50;;;;;;;17.15;40.81;100574.28;10504522;28;20044;-67
2022/06/14 06:41:52;;;;;;;5.32;2.40;;;;;;;17.60;40.43;100565.44;10504246;28;20488;-67
2022/06/14 06:47:17;;;;;;;7.63;2.40;;;;;;;18.16;39.49;100568.00;10503538;28;20052;-67
2022/06/14 06:52:25;;;;;;;6.05;2.42;;;;;;;19.62;37.62;100565.31;10505745;28;20433;-67
2022/06/14 06:57:30;;;;;;;6.97;2.20;;;;;;;21.33;34.80;100555.81;10503651;28;20287;-67
2022/06/14 07:02:47;;;;;;;5.50;2.17;;;;;;;23.00;30.87;100549.00;10501289;28;20043;-67
2022/06/14 07:07:52;;;;;;;8.75;2.58;;;;;;;24.17;29.77;100541.06;10503183;28;20786;-67
2022/06/14 07:13:15;;;;;;;5.63;2.08;;;;;;;24.79;28.73;100536.97;10493778;28;20504;-67
2022/06/14 07:18:29;;;;;;;5.40;2.22;;;;;;;25.48;27.08;100528.31;10501284;28;20054;-66
2022/06/14 07:23:56;;;;;;;7.32;2.00;;;;;;;26.01;26.92;100517.72;10499510;28;20040;-66
2022/06/14 07:29:07;;;;;;;5.65;2.17;;;;;;;25.57;26.78;100527.28;10483645;28;20097;-67
2022/06/14 07:34:11;;;;;;;7.05;2.10;;;;;;;24.57;28.23;100530.41;10502604;28;20066;-66
2022/06/14 07:39:18;;;;;;;5.35;2.10;;;;;;;25.42;26.69;100527.19;10503112;28;20151;-66
2022/06/14 07:44:30;;;;;;;6.00;2.13;;;;;;;25.05;27.03;100534.94;10499675;28;20816;-67
2022/06/14 07:49:58;;;;;;;10.23;2.20;;;;;;;25.28;26.81;100521.66;10502419;28;20121;-67
2022/06/14 07:55:08;;;;;;;7.13;2.03;;;;;;;26.26;25.81;100521.06;10497869;28;20071;-67
2022/06/14 08:05:45;;;;;;;6.65;2.22;;;;;;;25.90;26.17;100510.88;10502141;28;20036;-67
2022/06/14 08:10:52;;;;;;;6.53;2.10;;;;;;;26.96;25.50;100506.41;10500659;28;20587;-67
2022/06/14 08:15:59;;;;;;;8.80;2.33;;;;;;;26.30;24.77;100504.44;10505604;28;20143;-67
2022/06/14 08:21:09;;;;;;;5.43;1.92;;;;;;;26.17;25.03;100500.69;10505389;28;20141;-67
2022/06/14 08:26:39;;;;;;;9.60;2.17;;;;;;;26.96;24.24;100489.47;10505554;28;20557;-67
2022/06/14 08:32:14;;;;;;;6.57;2.00;;;;;;;26.55;24.23;100492.53;10507341;28;20649;-67
2022/06/14 08:37:31;;;;;;;8.15;2.30;;;;;;;26.01;24.26;100492.75;10512416;28;20052;-67
2022/06/14 08:42:39;;;;;;;5.80;2.03;;;;;;;26.15;24.40;100490.16;10513171;28;20783;-67
2022/06/14 08:48:06;;;;;;;7.88;2.15;;;;;;;26.53;23.64;100488.31;10505947;28;20512;-68
2022/06/14 08:53:28;;;;;;;7.60;2.10;;;;;;;27.33;22.56;100479.50;10509197;28;20540;-68
2022/06/14 08:59:02;;;;;;;6.55;2.13;;;;;;;27.16;23.25;100472.66;10512880;28;20107;-67
2022/06/14 09:04:22;;;;;;;5.70;1.80;;;;;;;26.83;23.36;100463.28;10481510;28;20083;-68
2022/06/14 09:09:33;;;;;;;6.40;2.00;;;;;;;26.76;23.49;100466.84;10509358;28;20044;-67
2022/06/14 09:14:50;;;;;;;7.38;1.90;;;;;;;26.24;23.80;100461.44;10505595;28;20101;-67
2022/06/14 09:20:08;;;;;;;4.43;1.63;;;;;;;26.83;23.51;100457.91;10506734;28;20044;-67
2022/06/14 09:25:38;;;;;;;4.45;1.50;;;;;;;27.44;21.35;100449.47;10497782;28;20584;-67
2022/06/14 09:31:30;;;;;;;5.32;1.60;;;;;;;26.90;22.79;100445.41;10504516;28;20609;-67
2022/06/14 09:37:07;;;;;;;6.35;1.70;;;;;;;26.68;22.14;100446.31;10506516;28;20057;-67
2022/06/14 09:42:36;;;;;;;8.38;1.60;;;;;;;26.23;22.35;100440.97;10509495;28;20873;-66
2022/06/14 09:48:12;;;;;;;9.43;1.92;;;;;;;26.60;22.42;100430.28;10506589;28;20393;-67
2022/06/14 09:53:25;;;;;;;6.80;1.38;;;;;;;26.45;22.63;100430.22;10507681;28;20514;-67
2022/06/14 09:59:14;;;;;;;7.70;1.80;;;;;;;26.78;22.27;100429.94;10508291;28;20055;-66
2022/06/14 10:04:43;;;;;;;5.95;1.90;;;;;;;27.04;21.83;100415.03;10495958;28;20178;-66
2022/06/14 10:09:54;;;;;;;6.60;1.50;;;;;;;25.57;22.57;100417.47;10503320;28;20557;-67
2022/06/14 10:15:03;;;;;;;9.45;1.60;;;;;;;25.35;23.10;100403.00;10505351;28;20048;-67
2022/06/14 10:20:41;;;;;;;6.07;1.70;;;;;;;25.23;22.24;100407.06;10503029;28;20139;-67
2022/06/14 10:31:27;;;;;;;8.55;1.63;;;;;;;24.95;23.34;100395.13;10506206;28;20074;-65
2022/06/14 10:36:47;;;;;;;6.13;1.70;;;;;;;25.45;22.44;100403.63;10491208;28;20153;-67
2022/06/14 10:42:00;;;;;;;;;;;;;;;24.46;23.27;100391.72;10503875;28;20771;-66
2022/06/14 10:47:17;;;;;;;5.82;1.92;;;;;;;24.99;23.53;100375.88;10504736;28;20341;-67
2022/06/14 10:52:41;;;;;;;6.65;1.65;;;;;;;25.26;23.34;100371.91;10501219;28;20491;-66
2022/06/14 10:57:43;;;;;;;9.48;1.70;;;;;;;24.70;23.94;100383.63;10501895;28;20178;-65
2022/06/14 11:03:22;;;;;;;7.32;1.65;;;;;;;24.24;24.28;100381.72;10504531;28;20491;-66
2022/06/14 11:08:57;;;;;;;8.80;1.90;;;;;;;23.94;24.06;100372.47;10496909;28;20542;-66
2022/06/14 11:14:28;;;;;;;4.80;1.80;;;;;;;23.76;24.20;100374.47;10505641;28;20145;-66
2022/06/14 11:20:07;;;;;;;4.30;1.50;;;;;;;23.74;24.33;100371.13;10502201;28;20135;-66
2022/06/14 11:25:34;;;;;;;5.10;1.70;;;;;;;23.57;24.14;100357.94;10503925;28;20084;-66
2022/06/14 11:30:51;;;;;;;3.33;1.40;;;;;;;23.68;25.09;100355.78;10501879;28;20541;-66
2022/06/14 11:36:15;;;;;;;6.05;1.67;;;;;;;23.82;25.47;100347.09;10499384;28;20143;-65
2022/06/14 11:41:23;;;;;;;6.00;1.50;;;;;;;24.44;24.40;100342.06;10499445;28;20044;-65
2022/06/14 11:47:05;;;;;;;3.83;1.80;;;;;;;24.08;25.09;100334.44;10501844;28;20391;-65
2022/06/14 11:52:09;;;;;;;4.65;1.73;;;;;;;23.97;24.83;100317.88;10457220;28;20052;-66
2022/06/14 11:57:30;;;;;;;6.95;1.58;;;;;;;24.40;23.57;100319.34;10507618;28;20047;-67
2022/06/14 12:02:50;;;;;;;6.82;1.58;;;;;;;23.93;23.48;100324.56;10509228;28;20052;-67
2022/06/14 12:08:01;;;;;;;4.25;1.70;;;;;;;23.55;24.06;100318.06;10511566;28;20092;-67
2022/06/14 12:13:37;;;;;;;8.57;1.80;;;;;;;23.53;23.53;100317.38;10508643;28;20186;-67
2022/06/14 12:18:45;;;;;;;6.60;1.52;;;;;;;23.88;24.18;100305.56;10504375;28;20131;-67
2022/06/14 12:24:10;;;;;;;4.70;1.33;;;;;;;24.05;23.50;100299.16;10509997;28;20048;-66
2022/06/14 12:29:20;;;;;;;6.32;1.67;;;;;;;23.92;23.17;100306.88;10496664;28;20108;-66
2022/06/14 12:34:37;;;;;;;5.43;1.50;;;;;;;23.90;23.46;100301.69;10506169;28;20124;-66
2022/06/14 12:39:48;;;;;;;3.63;1.70;;;;;;;24.41;23.27;100289.75;10509805;28;20198;-66
2022/06/14 12:45:02;;;;;;;4.35;1.70;;;;;;;24.36;22.54;100280.59;10500997;28;20458;-65
2022/06/14 12:50:37;;;;;;;3.40;1.50;;;;;;;24.33;21.89;100265.72;10504321;28;20151;-66
2022/06/14 12:55:49;;;;;;;4.70;1.42;;;;;;;24.19;21.98;100264.59;10509140;28;20051;-65
2022/06/14 13:00:58;;;;;;;4.15;1.80;;;;;;;24.24;22.15;100261.44;10507314;28;20558;-66
2022/06/14 13:06:19;;;;;;;4.93;1.58;;;;;;;24.13;22.25;100248.41;10509204;28;20131;-66
2022/06/14 13:11:33;;;;;;;3.78;1.60;;;;;;;24.26;22.56;100254.06;10509330;28;20482;-66
2022/06/14 13:17:07;;;;;;;5.90;1.60;;;;;;;24.22;22.87;100248.25;10506448;28;20139;-66
2022/06/14 13:22:47;;;;;;;4.45;1.52;;;;;;;24.37;22.21;100229.63;10507937;28;20054;-66
2022/06/14 13:27:57;;;;;;;4.60;1.60;;;;;;;24.69;21.85;100228.66;10510070;28;20131;-66
2022/06/14 13:33:25;;;;;;;3.97;1.60;;;;;;;24.69;21.51;100226.84;10509383;28;20063;-67
2022/06/14 13:38:38;;;;;;;5.82;1.60;;;;;;;24.75;21.07;100217.31;10497885;28;20856;-66
2022/06/14 13:44:02;;;;;;;5.68;1.73;;;;;;;24.64;21.36;100220.31;10505309;28;20229;-65
2022/06/14 13:49:15;;;;;;;7.65;1.73;;;;;;;24.65;21.78;100209.47;10479937;28;20086;-66
2022/06/14 13:54:46;;;;;;;5.80;1.63;;;;;;;24.68;20.53;100205.59;10505951;28;20467;-65
2022/06/14 13:59:51;;;;;;;3.95;1.70;;;;;;;24.93;20.60;100193.78;10505453;28;20174;-65
2022/06/14 14:05:17;;;;;;;4.70;1.50;;;;;;;25.04;19.85;100190.66;10504854;28;20052;-66
2022/06/14 14:10:35;;;;;;;5.35;1.85;;;;;;;24.90;20.66;100178.06;10503125;28;20059;-65
2022/06/14 14:15:41;;;;;;;4.80;1.40;;;;;;;24.79;20.32;100179.31;10505199;28;20132;-65
2022/06/14 14:20:53;;;;;;;4.63;1.50;;;;;;;24.57;20.64;100176.59;10503703;28;20043;-65
2022/06/14 14:26:10;;;;;;;3.97;1.40;;;;;;;24.70;20.35;100168.81;10505836;28;20058;-65
2022/06/14 14:31:34;;;;;;;3.55;1.55;;;;;;;24.84;20.77;100162.72;10503919;28;20095;-65
2022/06/14 14:36:39;;;;;;;4.95;1.50;;;;;;;24.98;20.34;100159.28;10504028;28;20052;-66
2022/06/14 14:41:52;;;;;;;5.55;1.70;;;;;;;25.36;20.12;100150.31;10501371;28;20055;-65
2022/06/14 14:47:08;;;;;;;5.05;1.55;;;;;;;25.19;19.82;100148.75;10503201;28;20150;-65
2022/06/14 14:52:32;;;;;;;4.97;1.50;;;;;;;25.48;20.20;100145.34;10503189;28;20052;-65
2022/06/14 14:57:42;;;;;;;3.15;1.30;;;;;;;25.81;20.45;100135.97;10504106;28;20475;-65
2022/06/14 15:08:22;;;;;;;5.88;1.60;;;;;;;25.29;20.12;100130.59;10493576;28;20066;-66
2022/06/14 15:13:35;;;;;;;7.22;1.52;;;;;;;25.46;20.01;100124.09;10495509;28;20071;-65
2022/06/14 15:24:01;;;;;;;5.05;1.38;;;;;;;25.66;20.78;100117.19;10500909;28;20134;-66
2022/06/14 15:29:03;;;;;;;3.80;1.40;;;;;;;25.67;20.61;100121.53;10510448;28;20075;-66
2022/06/14 15:34:15;;;;;;;3.95;1.50;;;;;;;25.39;20.82;100106.25;10509779;28;20173;-66
2022/06/14 15:39:29;;;;;;;6.15;1.60;;;;;;;25.41;21.39;100102.38;10506456;28;20630;-66
2022/06/14 15:44:32;;;;;;;4.18;1.40;;;;;;;25.64;21.52;100099.63;10508511;28;20062;-65
2022/06/14 15:49:47;;;;;;;5.35;1.48;;;;;;;25.56;21.54;100097.06;10508711;28;20197;-66
2022/06/14 15:55:20;;;;;;;4.65;1.65;;;;;;;25.79;21.07;100087.91;10508332;28;20050;-66
2022/06/14 16:00:25;;;;;;;4.47;1.50;;;;;;;25.89;20.63;100083.09;10511139;28;20052;-65
2022/06/14 16:05:36;;;;;;;3.47;1.42;;;;;;;25.97;21.60;100073.31;10510302;28;20472;-64
2022/06/14 16:10:54;;;;;;;4.53;1.50;;;;;;;25.88;20.94;100067.19;10507147;28;20562;-65
2022/06/14 16:16:06;;;;;;;5.00;1.50;;;;;;;25.47;20.82;100074.03;10507866;28;20075;-65
2022/06/14 16:21:32;;;;;;;6.28;1.42;;;;;;;25.38;21.08;100070.63;10509114;28;20047;-65
2022/06/14 16:26:39;;;;;;;4.90;1.52;;;;;;;25.32;21.35;100067.81;10508413;28;20036;-65
2022/06/14 16:32:15;;;;;;;2.70;1.30;;;;;;;25.36;21.45;100055.75;10503800;28;20047;-65
2022/06/14 16:37:48;;;;;;;4.07;1.40;;;;;;;25.64;21.52;100057.63;10498649;28;20400;-65
2022/06/14 16:43:01;;;;;;;4.85;1.50;;;;;;;25.80;21.37;100054.75;10504311;28;20137;-65
2022/06/14 16:48:23;;;;;;;3.17;1.20;;;;;;;25.74;21.06;100055.50;10499988;28;20062;-65
2022/06/14 16:53:30;;;;;;;3.30;1.48;;;;;;;25.38;21.18;100051.06;10505877;28;20079;-66
2022/06/14 16:58:49;;;;;;;5.57;1.48;;;;;;;25.30;21.28;100046.59;10507385;28;20479;-65
2022/06/14 17:04:09;;;;;;;4.15;1.33;;;;;;;25.44;20.88;100040.44;10506399;28;20048;-65
2022/06/14 17:09:44;;;;;;;5.68;1.42;;;;;;;25.27;20.89;100046.94;10505561;28;20438;-65
2022/06/14 17:14:58;;;;;;;2.55;1.20;;;;;;;25.36;21.17;100040.53;10503053;28;20113;-65
2022/06/14 17:20:18;;;;;;;3.17;1.48;;;;;;;25.12;20.87;100034.56;10506195;28;20163;-65
2022/06/14 17:31:23;;;;;;;2.90;1.23;;;;;;;24.98;21.15;100030.81;10507396;28;20752;-66
2022/06/14 17:36:41;;;;;;;5.20;1.40;;;;;;;24.95;21.24;100028.53;10504984;28;20133;-65
2022/06/14 17:41:48;;;;;;;4.18;1.30;;;;;;;24.65;21.45;100026.75;10503525;28;20040;-65
2022/06/14 17:46:52;;;;;;;2.67;1.38;;;;;;;24.41;21.87;100026.94;10502730;28;20446;-65
2022/06/14 17:52:08;;;;;;;2.53;1.20;;;;;;;24.37;21.94;100026.44;10504620;28;20415;-66
2022/06/14 17:57:26;;;;;;;3.13;1.55;;;;;;;24.35;21.69;100022.31;10506258;28;20148;-65
2022/06/14 18:02:46;;;;;;;3.92;1.30;;;;;;;24.42;21.94;100033.94;10506001;28;20063;-64
2022/06/14 18:07:48;;;;;;;6.35;1.48;;;;;;;24.36;22.01;100034.66;10505126;28;20103;-67
2022/06/14 18:13:01;;;;;;;7.05;1.50;;;;;;;24.20;22.04;100036.44;10504358;28;20525;-60
2022/06/14 18:18:36;;;;;;;2.50;1.25;;;;;;;24.05;21.74;100031.97;10502739;28;20138;-60
2022/06/14 18:23:48;;;;;;;4.10;1.58;;;;;;;23.81;22.04;100035.59;10481607;28;21074;-61
2022/06/14 18:29:05;;;;;;;4.40;1.30;;;;;;;23.68;22.84;100035.31;10504221;28;20139;-61
2022/06/14 18:34:32;;;;;;;3.10;1.50;;;;;;;23.46;22.61;100028.06;10504245;28;20054;-61
2022/06/14 18:39:36;;;;;;;5.97;1.40;;;;;;;23.41;23.31;100025.09;10504112;28;20062;-61
2022/06/14 18:44:39;;;;;;;3.72;1.42;;;;;;;23.12;23.59;100028.28;10502795;28;20054;-61
2022/06/14 18:49:54;;;;;;;8.60;1.67;;;;;;;22.86;23.88;100024.16;10503600;28;20210;-61
2022/06/14 18:55:02;;;;;;;3.55;1.60;;;;;;;22.68;24.30;100025.09;10502135;28;20459;-61
2022/06/14 19:00:05;;;;;;;7.00;1.70;;;;;;;22.40;24.85;100031.75;10499533;28;20526;-61
2022/06/14 19:05:31;;;;;;;7.32;1.95;;;;;;;22.18;25.92;100020.88;10503407;28;20139;-61
2022/06/14 19:10:54;;;;;;;8.40;1.70;;;;;;;21.97;26.78;100029.28;10502875;28;20099;-61
2022/06/14 19:15:56;;;;;;;4.10;1.55;;;;;;;21.71;26.63;100020.56;10502318;28;20146;-60
2022/06/14 19:21:16;;;;;;;3.63;1.60;;;;;;;21.31;27.63;100026.50;10519069;28;20139;-61
2022/06/14 19:26:50;;;;;;;4.95;1.70;;;;;;;20.97;28.10;100022.94;10503084;28;20448;-61
2022/06/14 19:32:01;;;;;;;4.50;1.55;;;;;;;20.90;28.82;100029.88;10502417;28;21188;-60
2022/06/14 19:37:21;;;;;;;4.72;1.48;;;;;;;20.64;29.97;100029.81;10500544;28;20050;-61
2022/06/14 19:42:39;;;;;;;4.63;1.75;;;;;;;20.63;30.28;100033.47;10502618;28;20055;-61
2022/06/14 19:47:47;;;;;;;4.18;1.60;;;;;;;20.46;30.50;100031.63;10498753;28;20066;-62
2022/06/14 19:53:02;;;;;;;7.88;1.65;;;;;;;20.16;31.30;100037.28;10498641;28;20063;-61
2022/06/14 19:58:19;;;;;;;4.85;1.52;;;;;;;20.06;31.94;100041.84;10492104;28;20060;-61
2022/06/14 20:03:40;;;;;;;5.10;1.80;;;;;;;19.99;31.77;100040.78;10500252;28;20143;-61
2022/06/14 20:08:42;;;;;;;5.18;1.83;;;;;;;19.79;31.97;100047.97;10501772;28;20059;-61
2022/06/14 20:13:44;;;;;;;6.00;2.40;;;;;;;19.77;32.68;100055.22;10506491;28;20134;-61
2022/06/14 20:19:04;;;;;;;4.38;1.63;;;;;;;19.74;34.34;100060.84;10511206;28;20184;-61
2022/06/14 20:24:07;;;;;;;;;;;;;;;19.35;34.19;100059.31;10511188;28;20110;-61
2022/06/14 20:29:09;;;;;;;2.95;1.63;;;;;;;19.52;34.21;100066.53;10505804;28;20239;-61
2022/06/14 20:34:13;;;;;;;3.13;1.58;;;;;;;19.37;34.93;100071.47;10509288;28;20127;-61
2022/06/14 20:39:30;;;;;;;2.80;1.60;;;;;;;19.14;36.16;100067.47;10509554;28;20135;-61
2022/06/14 20:44:39;;;;;;;5.18;1.60;;;;;;;18.89;36.01;100062.72;10508837;28;20056;-61
2022/06/14 20:49:43;;;;;;;3.85;1.77;;;;;;;18.76;36.38;100067.47;10507491;28;20052;-61
2022/06/14 20:54:53;;;;;;;4.28;1.50;;;;;;;18.42;37.15;100071.53;10507210;28;20268;-61
2022/06/14 20:59:56;;;;;;;4.15;1.80;;;;;;;18.28;37.66;100069.28;10508819;28;20048;-61
2022/06/14 21:04:59;;;;;;;6.43;1.73;;;;;;;18.18;38.11;100071.03;10499361;28;20167;-61
2022/06/14 21:10:05;;;;;;;7.30;1.80;;;;;;;17.76;39.16;100068.53;10500393;28;20491;-60
2022/06/14 21:15:18;;;;;;;6.28;1.90;;;;;;;17.31;40.71;100079.56;10498728;28;20768;-60
2022/06/14 21:20:20;;;;;;;3.47;1.70;;;;;;;17.41;40.19;100077.84;10510324;28;20535;-61
2022/06/14 21:25:24;;;;;;;7.03;2.08;;;;;;;17.40;40.64;100073.53;10510999;28;20064;-61
2022/06/14 21:30:33;;;;;;;2.70;1.40;;;;;;;17.19;41.32;100078.81;10511607;28;20492;-61
2022/06/14 21:35:47;;;;;;;2.60;1.60;;;;;;;17.19;41.51;100083.25;10508712;28;20127;-60
2022/06/14 21:41:11;;;;;;;3.17;1.58;;;;;;;17.07;42.30;100079.84;10508898;28;20076;-61
2022/06/14 21:46:14;;;;;;;2.75;1.55;;;;;;;16.84;42.73;100081.75;10509915;28;20036;-60
2022/06/14 21:51:19;;;;;;;4.70;1.70;;;;;;;16.76;42.46;100080.72;10509556;28;20076;-61
2022/06/14 21:56:25;;;;;;;5.25;1.77;;;;;;;16.75;42.50;100082.50;10509441;28;20675;-60
2022/06/14 22:01:27;;;;;;;3.90;1.60;;;;;;;16.53;43.01;100084.44;10506241;28;20059;-60
2022/06/14 22:06:33;;;;;;;3.45;1.80;;;;;;;16.33;43.29;100082.50;10510380;28;20052;-61
2022/06/14 22:11:38;;;;;;;4.60;1.80;;;;;;;16.31;43.56;100087.91;10510766;28;20047;-60
2022/06/14 22:16:41;;;;;;;4.10;1.70;;;;;;;16.23;43.53;100093.81;10508719;28;20131;-60
2022/06/14 22:21:42;;;;;;;3.67;1.50;;;;;;;15.97;44.38;100095.06;10508158;28;20047;-60
2022/06/14 22:26:44;;;;;;;3.55;1.63;;;;;;;15.67;45.01;100099.28;10510308;28;20087;-60
2022/06/14 22:31:46;;;;;;;2.78;1.52;;;;;;;15.49;45.52;100098.91;10508521;28;20458;-60
2022/06/14 22:36:48;;;;;;;4.80;1.70;;;;;;;15.64;45.47;100096.88;10509504;28;20176;-60
2022/06/14 22:41:49;;;;;;;3.67;1.70;;;;;;;15.49;45.97;100095.41;10507325;28;20048;-60
2022/06/14 22:46:51;;;;;;;5.82;1.88;;;;;;;15.30;46.58;100104.75;10508331;28;20127;-60
2022/06/14 22:51:54;;;;;;;7.20;2.13;;;;;;;14.57;47.72;100106.75;10508310;28;20078;-60
2022/06/14 22:57:00;;;;;;;5.43;2.10;;;;;;;14.71;47.69;100103.13;10506148;28;20044;-61
2022/06/14 23:02:06;;;;;;;3.22;1.80;;;;;;;14.77;47.33;100112.34;10508590;28;20144;-60
2022/06/14 23:07:11;;;;;;;3.67;1.63;;;;;;;14.30;48.07;100103.47;10507550;28;20047;-60
2022/06/14 23:12:16;;;;;;;3.72;1.70;;;;;;;14.32;48.34;100108.63;10507571;28;20056;-60
2022/06/14 23:17:18;;;;;;;5.78;1.83;;;;;;;14.32;48.28;100114.72;10508097;28;20051;-60
2022/06/14 23:22:19;;;;;;;4.05;1.88;;;;;;;14.45;48.28;100106.81;10504413;28;20120;-60
2022/06/14 23:27:21;;;;;;;5.35;2.10;;;;;;;14.57;48.22;100113.81;10507823;28;20148;-60
2022/06/14 23:32:23;;;;;;;4.30;1.80;;;;;;;14.17;48.74;100113.19;10507744;28;20578;-60
2022/06/14 23:37:25;;;;;;;4.13;1.77;;;;;;;13.89;49.81;100108.22;10506894;28;20066;-59
2022/06/14 23:42:27;;;;;;;3.22;1.70;;;;;;;14.06;49.73;100115.75;10504380;28;20518;-60
2022/06/14 23:47:29;;;;;;;4.28;1.88;;;;;;;14.11;49.75;100113.63;10509127;28;20501;-60
2022/06/14 23:52:30;;;;;;;6.88;2.00;;;;;;;14.11;50.09;100111.00;10515382;28;20058;-60
2022/06/14 23:57:32;;;;;;;5.10;1.90;;;;;;;14.04;50.54;100109.78;10512015;28;20383;-60
